Terminal Aerodrome Forecast
Issued by NWS

Home | Current Version | Previous Version | Text Only | Print | Product List | Glossary On
Versions: 1 2 3 4 5 6 7 8 9 10 11 12 13 14 15 16 17 18
000
FTUS43 KPAH 240520
TAFOWB
TAF
KOWB 240520Z 2406/2506 16011KT P6SM FEW250 WS020/18050KT
     FM240900 17013G20KT P6SM FEW250
     FM241400 19014G23KT P6SM SCT025 BKN250
      TEMPO 2415/2419 18010KT BKN025
     FM241900 19014G23KT P6SM BKN035
     FM250000 16008KT P6SM BKN040=

USA.gov is the U.S. government's official web portal to all federal, state and local government web resources and services.